Pires Coelho — CUPM6 — position and weather

sailwx.info

Track history (hours):
 
Tides and Currents Weather Stations Pressure Air Temp Water Temp Dewpoint Dewpoint Depression Visibility Wind Speed Wind Dir Waves Ship Positions

Pires Coelho

Last reported at 2017-Nov-19 23:51 UTC. Time now 2017-Nov-20 07:53 UTC.
Position N 36°60' W 008°58'.

Length 27 m.

Type: Fishing. MMSI: 263236000.

Date/timePositionNaut miles runAvg speedWind from/ knotsBaromVisibWave heightAir tempDewpointWater temp
2017-Nov-19 23:51N 36°60' W 008°58'2 6.4
2017-Nov-19 23:29N 37°01' W 008°56'0 0.1
2017-Nov-19 22:47N 37°01' W 008°56'0 0.0
2017-Nov-19 22:30N 37°01' W 008°56'0 0.0
2017-Nov-19 20:36N 37°01' W 008°56'0 1.1
2017-Nov-19 20:30N 37°01' W 008°56'0 0.0
2017-Nov-19 19:47N 37°01' W 008°56'0 0.0
2017-Nov-19 19:30N 37°01' W 008°56'0 0.0
2017-Nov-19 18:36N 37°01' W 008°56'0 0.0
2017-Nov-19 18:25N 37°01' W 008°56'0 0.0
2017-Nov-19 18:00N 37°01' W 008°56'24 8.7
2017-Nov-19 15:12N 37°23' W 009°08'0 1.8
2017-Nov-19 14:56N 37°23' W 009°09'2 2.5
2017-Nov-19 14:14N 37°25' W 009°09'1 2.9
2017-Nov-19 14:00N 37°25' W 009°09'1 2.9
2017-Nov-19 13:30N 37°27' W 009°09'1 2.8
2017-Nov-19 12:59N 37°28' W 009°08'1 1.2
2017-Nov-19 12:31N 37°29' W 009°08'1 1.3
2017-Nov-19 12:00N 37°28' W 009°09'1 3.0
2017-Nov-19 11:30N 37°27' W 009°09'1 3.0
2017-Nov-19 11:01N 37°25' W 009°09'1 2.9
2017-Nov-19 10:30N 37°24' W 009°09'1 1.3
2017-Nov-19 09:58N 37°24' W 009°09'1 2.9
2017-Nov-19 09:30N 37°25' W 009°09'1 2.9
2017-Nov-19 09:00N 37°27' W 009°09'1 2.9
2017-Nov-19 08:31N 37°28' W 009°08'1 2.8
2017-Nov-19 08:01N 37°29' W 009°09'5 9.5
2017-Nov-19 07:30N 37°28' W 009°15'5 9.9
2017-Nov-19 07:00N 37°28' W 009°21'5 9.9
2017-Nov-19 06:30N 37°27' W 009°27'2 4.5
2017-Nov-19 06:00N 37°27' W 009°30'0 0.8
2017-Nov-19 05:31N 37°27' W 009°30'0 0.7
2017-Nov-19 05:00N 37°27' W 009°30'1 2.9
2017-Nov-19 04:31N 37°26' W 009°30'2 2.8
2017-Nov-19 03:57N 37°24' W 009°30'1 2.9
2017-Nov-19 03:30N 37°23' W 009°31'1 2.9
2017-Nov-19 03:01N 37°21' W 009°31'1 3.0
2017-Nov-19 02:31N 37°20' W 009°32'3 2.9
2017-Nov-19 01:34N 37°17' W 009°31'0 3.0
2017-Nov-19 01:28N 37°17' W 009°31'3 3.5
2017-Nov-19 00:39N 37°14' W 009°30'1 5.3
2017-Nov-19 00:28N 37°13' W 009°29'1 1.7
2017-Nov-19 00:01N 37°14' W 009°30'1 1.5
2017-Nov-18 23:30N 37°13' W 009°30'1 2.9
2017-Nov-18 23:01N 37°15' W 009°30'2 2.9
2017-Nov-18 22:27N 37°16' W 009°31'1 3.0
2017-Nov-18 22:00N 37°17' W 009°31'1 3.0
2017-Nov-18 21:30N 37°19' W 009°31'1 3.0
2017-Nov-18 21:00N 37°20' W 009°31'1 2.9
2017-Nov-18 20:30N 37°22' W 009°31'1 3.0
2017-Nov-18 20:00N 37°23' W 009°30'1 2.8
2017-Nov-18 19:30N 37°25' W 009°30'1 2.8
2017-Nov-18 19:01N 37°26' W 009°30'1 2.3
2017-Nov-18 18:30N 37°27' W 009°30'3 5.2
2017-Nov-18 18:01N 37°30' W 009°30'1 1.1
2017-Nov-18 17:31N 37°30' W 009°30'1 1.7
2017-Nov-18 17:01N 37°31' W 009°30'1 2.8
2017-Nov-18 16:30N 37°30' W 009°31'1 2.8
2017-Nov-18 16:01N 37°28' W 009°30'1 2.8
2017-Nov-18 15:30N 37°27' W 009°30'1 2.9
2017-Nov-18 15:00N 37°25' W 009°30'1 3.0
2017-Nov-18 14:31N 37°24' W 009°30'1 2.9
2017-Nov-18 14:01N 37°23' W 009°31'2 2.9
2017-Nov-18 13:17N 37°21' W 009°31'1 2.9
2017-Nov-18 13:00N 37°20' W 009°31'2 2.9
2017-Nov-18 12:29N 37°18' W 009°31'3 3.1
2017-Nov-18 11:27N 37°15' W 009°30'2 4.1
2017-Nov-18 11:00N 37°13' W 009°29'1 1.7
2017-Nov-18 10:31N 37°14' W 009°30'0 1.0
2017-Nov-18 10:01N 37°14' W 009°30'1 2.9
2017-Nov-18 09:30N 37°15' W 009°30'2 2.9
2017-Nov-18 08:58N 37°16' W 009°31'1 2.8
2017-Nov-18 08:30N 37°18' W 009°31'1 2.9
2017-Nov-18 08:01N 37°19' W 009°32'1 2.9
2017-Nov-18 07:31N 37°21' W 009°32'1 2.8
2017-Nov-18 07:01N 37°22' W 009°31'1 2.9
2017-Nov-18 06:30N 37°23' W 009°31'2 2.9
2017-Nov-18 05:59N 37°25' W 009°30'1 2.8
2017-Nov-18 05:30N 37°26' W 009°30'1 2.3
2017-Nov-18 05:01N 37°27' W 009°31'3 5.4
2017-Nov-18 04:30N 37°30' W 009°30'0 0.4
2017-Nov-18 04:00N 37°30' W 009°30'1 1.0
2017-Nov-18 02:56N 37°29' W 009°30'1 2.8
2017-Nov-18 02:31N 37°27' W 009°30'1 2.9
2017-Nov-18 02:01N 37°26' W 009°30'1 2.8
2017-Nov-18 01:31N 37°25' W 009°30'1 2.9
2017-Nov-18 01:01N 37°23' W 009°31'2 2.9
2017-Nov-18 00:18N 37°21' W 009°31'1 2.9
2017-Nov-18 00:00N 37°20' W 009°31'1 2.9
2017-Nov-17 23:31N 37°19' W 009°31'2 2.8
2017-Nov-17 22:56N 37°17' W 009°31'7 4.6
2017-Nov-17 21:29N 37°12' W 009°26'5 9.3
2017-Nov-17 20:59N 37°10' W 009°21'5 9.9
2017-Nov-17 20:28N 37°07' W 009°15'5 9.8
2017-Nov-17 19:57N 37°05' W 009°10'5 9.5
2017-Nov-17 19:25N 37°03' W 009°04'4 9.4
2017-Nov-17 19:00N 37°01' W 008°60'5 8.4
2017-Nov-17 18:26N 37°00' W 008°54'4 9.1
2017-Nov-17 18:00N 37°01' W 008°49'5 9.1
2017-Nov-17 17:30N 37°03' W 008°44'5 9.3
2017-Nov-17 17:00N 37°04' W 008°38'5 9.3
2017-Nov-17 16:30N 37°06' W 008°33'2 4.3
2017-Nov-17 16:00N 37°08' W 008°32'0 0.0
2017-Nov-17 15:30N 37°08' W 008°32'0 0.0
2017-Nov-17 15:00N 37°08' W 008°32'0 0.0
2017-Nov-17 14:30N 37°08' W 008°32'0 0.0
2017-Nov-17 14:00N 37°08' W 008°32'0 0.0
2017-Nov-17 13:30N 37°08' W 008°32'0 0.0
2017-Nov-17 13:00N 37°08' W 008°32'0 0.0
2017-Nov-17 12:30N 37°08' W 008°32'0 0.0
2017-Nov-17 12:00N 37°08' W 008°32'0 0.0
2017-Nov-17 11:30N 37°08' W 008°32'0 0.0
2017-Nov-17 11:00N 37°08' W 008°32'0 0.0
2017-Nov-17 10:30N 37°08' W 008°32'0 0.0
2017-Nov-17 10:00N 37°08' W 008°32'0 0.0
2017-Nov-17 09:30N 37°08' W 008°32'0 0.0
2017-Nov-17 09:00N 37°08' W 008°32'0 0.0
2017-Nov-17 08:30N 37°08' W 008°32'0 0.0
2017-Nov-17 08:00N 37°08' W 008°32'0 0.0
2017-Nov-17 07:30N 37°08' W 008°32'0 0.0
2017-Nov-17 07:00N 37°08' W 008°32'0 0.0
2017-Nov-17 06:30N 37°08' W 008°32'0 0.0
2017-Nov-17 06:00N 37°08' W 008°32'0 0.0
2017-Nov-17 05:30N 37°08' W 008°32'0 0.0
2017-Nov-17 05:00N 37°08' W 008°32'0 0.0
2017-Nov-17 04:30N 37°08' W 008°32'0 0.0
2017-Nov-17 03:59N 37°08' W 008°32'0 0.0
2017-Nov-17 03:29N 37°08' W 008°32'0 0.0
2017-Nov-17 02:48N 37°08' W 008°32'0 0.0
2017-Nov-17 02:30N 37°08' W 008°32'0 0.0
2017-Nov-17 01:53N 37°08' W 008°32'0 0.0
2017-Nov-17 01:30N 37°08' W 008°32'0 0.0
2017-Nov-17 01:00N 37°08' W 008°32'0 0.0
2017-Nov-17 00:30N 37°08' W 008°32'0 0.0
2017-Nov-17 00:00N 37°08' W 008°32'0 0.0
2017-Nov-16 23:30N 37°08' W 008°32'0 0.0
2017-Nov-16 23:00N 37°08' W 008°32'0 0.0
2017-Nov-16 22:30N 37°08' W 008°32'0 0.0
2017-Nov-16 22:00N 37°08' W 008°32'0 0.0
2017-Nov-16 21:30N 37°08' W 008°32'0 0.0
2017-Nov-16 21:00N 37°08' W 008°32'0 0.1
2017-Nov-16 20:30N 37°08' W 008°32'2 4.8
2017-Nov-16 20:00N 37°06' W 008°30'5 9.8
2017-Nov-16 19:30N 37°03' W 008°25'5 9.8
2017-Nov-16 19:01N 37°01' W 008°20'510.0
2017-Nov-16 18:30N 36°58' W 008°15'5 9.9
2017-Nov-16 18:00N 36°56' W 008°09'8 0.8
2017-Nov-16 09:00N 36°51' W 008°02'2 0.4
2017-Nov-16 05:30N 36°51' W 008°04'510.0
2017-Nov-16 05:00N 36°51' W 008°10'4 5.9
2017-Nov-16 04:23N 36°50' W 008°14'1 2.7
2017-Nov-16 03:59N 36°50' W 008°16'2 3.1
2017-Nov-16 03:27N 36°51' W 008°18'1 3.0
2017-Nov-16 02:59N 36°51' W 008°19'1 3.1
2017-Nov-16 02:31N 36°51' W 008°21'2 3.2
2017-Nov-16 02:00N 36°52' W 008°23'2 3.0
2017-Nov-16 01:29N 36°53' W 008°25'1 3.0
2017-Nov-16 01:00N 36°53' W 008°27'2 3.2
2017-Nov-16 00:30N 36°54' W 008°28'1 2.6
2017-Nov-16 00:00N 36°52' W 008°28'5 9.7
2017-Nov-15 23:30N 36°48' W 008°25'1 1.1
2017-Nov-15 23:00N 36°48' W 008°25'2 3.1
2017-Nov-15 22:30N 36°47' W 008°23'2 3.2
2017-Nov-15 22:00N 36°47' W 008°21'4 3.1
2017-Nov-15 20:41N 36°47' W 008°16'1 3.1
2017-Nov-15 20:29N 36°47' W 008°15'2 3.2
2017-Nov-15 20:00N 36°48' W 008°13'2 3.2
2017-Nov-15 19:30N 36°48' W 008°11'2 3.8
2017-Nov-15 19:00N 36°48' W 008°09'1 2.1
2017-Nov-15 18:30N 36°49' W 008°09'5 0.2
2017-Nov-14 17:47N 36°52' W 008°04'1 2.8
2017-Nov-14 17:30N 36°51' W 008°05'2 2.9
2017-Nov-14 16:59N 36°50' W 008°06'1 1.6
2017-Nov-14 16:30N 36°49' W 008°06'1 1.0
2017-Nov-14 16:00N 36°49' W 008°06'2 3.1
2017-Nov-14 15:30N 36°50' W 008°04'7 0.7
2017-Nov-14 04:33N 36°57' W 008°08'210.0
2017-Nov-14 04:23N 36°57' W 008°10'410.0
2017-Nov-14 04:01N 36°59' W 008°14'510.0
2017-Nov-14 03:31N 37°01' W 008°20'510.0
2017-Nov-14 03:00N 37°03' W 008°25'510.0
2017-Nov-14 02:30N 37°06' W 008°31'2 4.5
2017-Nov-14 02:00N 37°08' W 008°32'0 0.0
2017-Nov-14 01:30N 37°08' W 008°32'0 0.0
2017-Nov-14 01:01N 37°08' W 008°32'0 0.0
2017-Nov-14 00:31N 37°08' W 008°32'0 0.0
2017-Nov-14 00:01N 37°08' W 008°32'0 0.0
2017-Nov-13 23:31N 37°08' W 008°32'0 0.0
2017-Nov-13 23:01N 37°08' W 008°32'0 0.0
2017-Nov-13 22:31N 37°08' W 008°32'0 0.0
2017-Nov-13 22:01N 37°08' W 008°32'24 0.9
2017-Nov-12 18:36N 36°48' W 008°15'1 9.6
2017-Nov-12 18:30N 36°48' W 008°14'1 2.3
2017-Nov-12 18:00N 36°49' W 008°13'1 2.9
2017-Nov-12 17:30N 36°49' W 008°12'1 2.9
2017-Nov-12 17:00N 36°49' W 008°10'1 2.5
2017-Nov-12 16:30N 36°49' W 008°08'2 3.1
2017-Nov-12 16:00N 36°50' W 008°06'2 3.1
2017-Nov-12 15:30N 36°50' W 008°05'2 3.1
2017-Nov-12 14:57N 36°51' W 008°03'3 0.5
2017-Nov-12 09:28N 36°53' W 008°05'2 0.4
2017-Nov-12 05:28N 36°51' W 008°06'510.0
2017-Nov-12 04:59N 36°50' W 008°12'3 5.4
2017-Nov-12 04:30N 36°50' W 008°15'1 2.9
2017-Nov-12 04:00N 36°50' W 008°17'2 3.0
2017-Nov-12 03:29N 36°51' W 008°18'1 3.0
2017-Nov-12 03:00N 36°51' W 008°20'2 3.0
2017-Nov-12 02:30N 36°51' W 008°22'1 2.9
2017-Nov-12 02:00N 36°52' W 008°24'1 2.9
2017-Nov-12 01:31N 36°52' W 008°25'2 3.0
2017-Nov-12 01:00N 36°53' W 008°27'2 3.0
2017-Nov-12 00:31N 36°54' W 008°29'3 7.0
2017-Nov-12 00:00N 36°57' W 008°30'510.6
2017-Nov-11 23:30N 37°03' W 008°31'510.1
2017-Nov-11 23:00N 37°08' W 008°32'0 0.8
2017-Nov-11 22:31N 37°08' W 008°32'0 0.0
2017-Nov-11 22:00N 37°08' W 008°32'0 0.0
2017-Nov-11 21:31N 37°08' W 008°32'0 0.0
2017-Nov-11 21:00N 37°08' W 008°32'0 0.0
2017-Nov-11 20:31N 37°08' W 008°32'0 0.0
2017-Nov-11 20:00N 37°08' W 008°32'0 0.0
2017-Nov-11 19:29N 37°08' W 008°32'4 7.9
2017-Nov-11 19:00N 37°04' W 008°32'5 9.8
2017-Nov-11 18:30N 36°59' W 008°33'510.0
2017-Nov-11 18:00N 36°54' W 008°34'7 4.2
2017-Nov-11 16:23N 36°48' W 008°34'5 3.0
2017-Nov-11 14:41N 36°47' W 008°40'0 1.7
2017-Nov-11 14:27N 36°47' W 008°41'0 0.3
2017-Nov-11 14:00N 36°47' W 008°41'1 2.9
2017-Nov-11 13:30N 36°47' W 008°42'1 2.9
2017-Nov-11 13:00N 36°47' W 008°44'1 2.9
2017-Nov-11 12:30N 36°47' W 008°46'6 2.9
2017-Nov-11 10:30N 36°47' W 008°53'1 2.6
2017-Nov-11 09:59N 36°47' W 008°55'6 0.2
2017-Nov-10 06:25N 36°50' W 009°01'3 6.3
2017-Nov-10 05:59N 36°52' W 008°60'7 6.3
2017-Nov-10 04:49N 36°59' W 008°56'2 4.8
2017-Nov-10 04:30N 37°01' W 008°56'0 0.1
2017-Nov-10 03:31N 37°01' W 008°56'0 0.0
2017-Nov-10 03:21N 37°01' W 008°56'0 0.0
2017-Nov-10 02:52N 37°01' W 008°56'0 0.0
2017-Nov-10 01:54N 37°01' W 008°56'0 0.0
2017-Nov-10 01:09N 37°01' W 008°56'0 0.0
2017-Nov-10 00:09N 37°01' W 008°56'  
Track history (hours):
 
Tides and Currents Weather Stations Pressure Air Temp Water Temp Dewpoint Dewpoint Depression Visibility Wind Speed Wind Dir Waves Ship Positions

Pires Coelho

Last reported at 2017-Nov-19 23:51 UTC. Time now 2017-Nov-20 07:53 UTC.
Position N 36°60' W 008°58'.

Length 27 m.

Type: Fishing. MMSI: 263236000.

Date/timePositionNaut miles runAvg speedWind from/ knotsBaromVisibWave heightAir tempDewpointWater temp
2017-Nov-19 23:51N 36°60' W 008°58'2 6.4
2017-Nov-19 23:29N 37°01' W 008°56'0 0.1
2017-Nov-19 22:47N 37°01' W 008°56'0 0.0
2017-Nov-19 22:30N 37°01' W 008°56'0 0.0
2017-Nov-19 20:36N 37°01' W 008°56'0 1.1
2017-Nov-19 20:30N 37°01' W 008°56'0 0.0
2017-Nov-19 19:47N 37°01' W 008°56'0 0.0
2017-Nov-19 19:30N 37°01' W 008°56'0 0.0
2017-Nov-19 18:36N 37°01' W 008°56'0 0.0
2017-Nov-19 18:25N 37°01' W 008°56'0 0.0
2017-Nov-19 18:00N 37°01' W 008°56'24 8.7
2017-Nov-19 15:12N 37°23' W 009°08'0 1.8
2017-Nov-19 14:56N 37°23' W 009°09'2 2.5
2017-Nov-19 14:14N 37°25' W 009°09'1 2.9
2017-Nov-19 14:00N 37°25' W 009°09'1 2.9
2017-Nov-19 13:30N 37°27' W 009°09'1 2.8
2017-Nov-19 12:59N 37°28' W 009°08'1 1.2
2017-Nov-19 12:31N 37°29' W 009°08'1 1.3
2017-Nov-19 12:00N 37°28' W 009°09'1 3.0
2017-Nov-19 11:30N 37°27' W 009°09'1 3.0
2017-Nov-19 11:01N 37°25' W 009°09'1 2.9
2017-Nov-19 10:30N 37°24' W 009°09'1 1.3
2017-Nov-19 09:58N 37°24' W 009°09'1 2.9
2017-Nov-19 09:30N 37°25' W 009°09'1 2.9
2017-Nov-19 09:00N 37°27' W 009°09'1 2.9
2017-Nov-19 08:31N 37°28' W 009°08'1 2.8
2017-Nov-19 08:01N 37°29' W 009°09'5 9.5
2017-Nov-19 07:30N 37°28' W 009°15'5 9.9
2017-Nov-19 07:00N 37°28' W 009°21'5 9.9
2017-Nov-19 06:30N 37°27' W 009°27'2 4.5
2017-Nov-19 06:00N 37°27' W 009°30'0 0.8
2017-Nov-19 05:31N 37°27' W 009°30'0 0.7
2017-Nov-19 05:00N 37°27' W 009°30'1 2.9
2017-Nov-19 04:31N 37°26' W 009°30'2 2.8
2017-Nov-19 03:57N 37°24' W 009°30'1 2.9
2017-Nov-19 03:30N 37°23' W 009°31'1 2.9
2017-Nov-19 03:01N 37°21' W 009°31'1 3.0
2017-Nov-19 02:31N 37°20' W 009°32'3 2.9
2017-Nov-19 01:34N 37°17' W 009°31'0 3.0
2017-Nov-19 01:28N 37°17' W 009°31'3 3.5
2017-Nov-19 00:39N 37°14' W 009°30'1 5.3
2017-Nov-19 00:28N 37°13' W 009°29'1 1.7
2017-Nov-19 00:01N 37°14' W 009°30'1 1.5
2017-Nov-18 23:30N 37°13' W 009°30'1 2.9
2017-Nov-18 23:01N 37°15' W 009°30'2 2.9
2017-Nov-18 22:27N 37°16' W 009°31'1 3.0
2017-Nov-18 22:00N 37°17' W 009°31'1 3.0
2017-Nov-18 21:30N 37°19' W 009°31'1 3.0
2017-Nov-18 21:00N 37°20' W 009°31'1 2.9
2017-Nov-18 20:30N 37°22' W 009°31'1 3.0
2017-Nov-18 20:00N 37°23' W 009°30'1 2.8
2017-Nov-18 19:30N 37°25' W 009°30'1 2.8
2017-Nov-18 19:01N 37°26' W 009°30'1 2.3
2017-Nov-18 18:30N 37°27' W 009°30'3 5.2
2017-Nov-18 18:01N 37°30' W 009°30'1 1.1
2017-Nov-18 17:31N 37°30' W 009°30'1 1.7
2017-Nov-18 17:01N 37°31' W 009°30'1 2.8
2017-Nov-18 16:30N 37°30' W 009°31'1 2.8
2017-Nov-18 16:01N 37°28' W 009°30'1 2.8
2017-Nov-18 15:30N 37°27' W 009°30'1 2.9
2017-Nov-18 15:00N 37°25' W 009°30'1 3.0
2017-Nov-18 14:31N 37°24' W 009°30'1 2.9
2017-Nov-18 14:01N 37°23' W 009°31'2 2.9
2017-Nov-18 13:17N 37°21' W 009°31'1 2.9
2017-Nov-18 13:00N 37°20' W 009°31'2 2.9
2017-Nov-18 12:29N 37°18' W 009°31'3 3.1
2017-Nov-18 11:27N 37°15' W 009°30'2 4.1
2017-Nov-18 11:00N 37°13' W 009°29'1 1.7
2017-Nov-18 10:31N 37°14' W 009°30'0 1.0
2017-Nov-18 10:01N 37°14' W 009°30'1 2.9
2017-Nov-18 09:30N 37°15' W 009°30'2 2.9
2017-Nov-18 08:58N 37°16' W 009°31'1 2.8
2017-Nov-18 08:30N 37°18' W 009°31'1 2.9
2017-Nov-18 08:01N 37°19' W 009°32'1 2.9
2017-Nov-18 07:31N 37°21' W 009°32'1 2.8
2017-Nov-18 07:01N 37°22' W 009°31'1 2.9
2017-Nov-18 06:30N 37°23' W 009°31'2 2.9
2017-Nov-18 05:59N 37°25' W 009°30'1 2.8
2017-Nov-18 05:30N 37°26' W 009°30'1 2.3
2017-Nov-18 05:01N 37°27' W 009°31'3 5.4
2017-Nov-18 04:30N 37°30' W 009°30'0 0.4
2017-Nov-18 04:00N 37°30' W 009°30'1 1.0
2017-Nov-18 02:56N 37°29' W 009°30'1 2.8
2017-Nov-18 02:31N 37°27' W 009°30'1 2.9
2017-Nov-18 02:01N 37°26' W 009°30'1 2.8
2017-Nov-18 01:31N 37°25' W 009°30'1 2.9
2017-Nov-18 01:01N 37°23' W 009°31'2 2.9
2017-Nov-18 00:18N 37°21' W 009°31'1 2.9
2017-Nov-18 00:00N 37°20' W 009°31'1 2.9
2017-Nov-17 23:31N 37°19' W 009°31'2 2.8
2017-Nov-17 22:56N 37°17' W 009°31'7 4.6
2017-Nov-17 21:29N 37°12' W 009°26'5 9.3
2017-Nov-17 20:59N 37°10' W 009°21'5 9.9
2017-Nov-17 20:28N 37°07' W 009°15'5 9.8
2017-Nov-17 19:57N 37°05' W 009°10'5 9.5
2017-Nov-17 19:25N 37°03' W 009°04'4 9.4
2017-Nov-17 19:00N 37°01' W 008°60'5 8.4
2017-Nov-17 18:26N 37°00' W 008°54'4 9.1
2017-Nov-17 18:00N 37°01' W 008°49'5 9.1
2017-Nov-17 17:30N 37°03' W 008°44'5 9.3
2017-Nov-17 17:00N 37°04' W 008°38'5 9.3
2017-Nov-17 16:30N 37°06' W 008°33'2 4.3
2017-Nov-17 16:00N 37°08' W 008°32'0 0.0
2017-Nov-17 15:30N 37°08' W 008°32'0 0.0
2017-Nov-17 15:00N 37°08' W 008°32'0 0.0
2017-Nov-17 14:30N 37°08' W 008°32'0 0.0
2017-Nov-17 14:00N 37°08' W 008°32'0 0.0
2017-Nov-17 13:30N 37°08' W 008°32'0 0.0
2017-Nov-17 13:00N 37°08' W 008°32'0 0.0
2017-Nov-17 12:30N 37°08' W 008°32'0 0.0
2017-Nov-17 12:00N 37°08' W 008°32'0 0.0
2017-Nov-17 11:30N 37°08' W 008°32'0 0.0
2017-Nov-17 11:00N 37°08' W 008°32'0 0.0
2017-Nov-17 10:30N 37°08' W 008°32'0 0.0
2017-Nov-17 10:00N 37°08' W 008°32'0 0.0
2017-Nov-17 09:30N 37°08' W 008°32'0 0.0
2017-Nov-17 09:00N 37°08' W 008°32'0 0.0
2017-Nov-17 08:30N 37°08' W 008°32'0 0.0
2017-Nov-17 08:00N 37°08' W 008°32'0 0.0
2017-Nov-17 07:30N 37°08' W 008°32'0 0.0
2017-Nov-17 07:00N 37°08' W 008°32'0 0.0
2017-Nov-17 06:30N 37°08' W 008°32'0 0.0
2017-Nov-17 06:00N 37°08' W 008°32'0 0.0
2017-Nov-17 05:30N 37°08' W 008°32'0 0.0
2017-Nov-17 05:00N 37°08' W 008°32'0 0.0
2017-Nov-17 04:30N 37°08' W 008°32'0 0.0
2017-Nov-17 03:59N 37°08' W 008°32'0 0.0
2017-Nov-17 03:29N 37°08' W 008°32'0 0.0
2017-Nov-17 02:48N 37°08' W 008°32'0 0.0
2017-Nov-17 02:30N 37°08' W 008°32'0 0.0
2017-Nov-17 01:53N 37°08' W 008°32'0 0.0
2017-Nov-17 01:30N 37°08' W 008°32'0 0.0
2017-Nov-17 01:00N 37°08' W 008°32'0 0.0
2017-Nov-17 00:30N 37°08' W 008°32'0 0.0
2017-Nov-17 00:00N 37°08' W 008°32'0 0.0
2017-Nov-16 23:30N 37°08' W 008°32'0 0.0
2017-Nov-16 23:00N 37°08' W 008°32'0 0.0
2017-Nov-16 22:30N 37°08' W 008°32'0 0.0
2017-Nov-16 22:00N 37°08' W 008°32'0 0.0
2017-Nov-16 21:30N 37°08' W 008°32'0 0.0
2017-Nov-16 21:00N 37°08' W 008°32'0 0.1
2017-Nov-16 20:30N 37°08' W 008°32'2 4.8
2017-Nov-16 20:00N 37°06' W 008°30'5 9.8
2017-Nov-16 19:30N 37°03' W 008°25'5 9.8
2017-Nov-16 19:01N 37°01' W 008°20'510.0
2017-Nov-16 18:30N 36°58' W 008°15'5 9.9
2017-Nov-16 18:00N 36°56' W 008°09'8 0.8
2017-Nov-16 09:00N 36°51' W 008°02'2 0.4
2017-Nov-16 05:30N 36°51' W 008°04'510.0
2017-Nov-16 05:00N 36°51' W 008°10'4 5.9
2017-Nov-16 04:23N 36°50' W 008°14'1 2.7
2017-Nov-16 03:59N 36°50' W 008°16'2 3.1
2017-Nov-16 03:27N 36°51' W 008°18'1 3.0
2017-Nov-16 02:59N 36°51' W 008°19'1 3.1
2017-Nov-16 02:31N 36°51' W 008°21'2 3.2
2017-Nov-16 02:00N 36°52' W 008°23'2 3.0
2017-Nov-16 01:29N 36°53' W 008°25'1 3.0
2017-Nov-16 01:00N 36°53' W 008°27'2 3.2
2017-Nov-16 00:30N 36°54' W 008°28'1 2.6
2017-Nov-16 00:00N 36°52' W 008°28'5 9.7
2017-Nov-15 23:30N 36°48' W 008°25'1 1.1
2017-Nov-15 23:00N 36°48' W 008°25'2 3.1
2017-Nov-15 22:30N 36°47' W 008°23'2 3.2
2017-Nov-15 22:00N 36°47' W 008°21'4 3.1
2017-Nov-15 20:41N 36°47' W 008°16'1 3.1
2017-Nov-15 20:29N 36°47' W 008°15'2 3.2
2017-Nov-15 20:00N 36°48' W 008°13'2 3.2
2017-Nov-15 19:30N 36°48' W 008°11'2 3.8
2017-Nov-15 19:00N 36°48' W 008°09'1 2.1
2017-Nov-15 18:30N 36°49' W 008°09'5 0.2
2017-Nov-14 17:47N 36°52' W 008°04'1 2.8
2017-Nov-14 17:30N 36°51' W 008°05'2 2.9
2017-Nov-14 16:59N 36°50' W 008°06'1 1.6
2017-Nov-14 16:30N 36°49' W 008°06'1 1.0
2017-Nov-14 16:00N 36°49' W 008°06'2 3.1
2017-Nov-14 15:30N 36°50' W 008°04'7 0.7
2017-Nov-14 04:33N 36°57' W 008°08'210.0
2017-Nov-14 04:23N 36°57' W 008°10'410.0
2017-Nov-14 04:01N 36°59' W 008°14'510.0
2017-Nov-14 03:31N 37°01' W 008°20'510.0
2017-Nov-14 03:00N 37°03' W 008°25'510.0
2017-Nov-14 02:30N 37°06' W 008°31'2 4.5
2017-Nov-14 02:00N 37°08' W 008°32'0 0.0
2017-Nov-14 01:30N 37°08' W 008°32'0 0.0
2017-Nov-14 01:01N 37°08' W 008°32'0 0.0
2017-Nov-14 00:31N 37°08' W 008°32'0 0.0
2017-Nov-14 00:01N 37°08' W 008°32'0 0.0
2017-Nov-13 23:31N 37°08' W 008°32'0 0.0
2017-Nov-13 23:01N 37°08' W 008°32'0 0.0
2017-Nov-13 22:31N 37°08' W 008°32'0 0.0
2017-Nov-13 22:01N 37°08' W 008°32'24 0.9
2017-Nov-12 18:36N 36°48' W 008°15'1 9.6
2017-Nov-12 18:30N 36°48' W 008°14'1 2.3
2017-Nov-12 18:00N 36°49' W 008°13'1 2.9
2017-Nov-12 17:30N 36°49' W 008°12'1 2.9
2017-Nov-12 17:00N 36°49' W 008°10'1 2.5
2017-Nov-12 16:30N 36°49' W 008°08'2 3.1
2017-Nov-12 16:00N 36°50' W 008°06'2 3.1
2017-Nov-12 15:30N 36°50' W 008°05'2 3.1
2017-Nov-12 14:57N 36°51' W 008°03'3 0.5
2017-Nov-12 09:28N 36°53' W 008°05'2 0.4
2017-Nov-12 05:28N 36°51' W 008°06'510.0
2017-Nov-12 04:59N 36°50' W 008°12'3 5.4
2017-Nov-12 04:30N 36°50' W 008°15'1 2.9
2017-Nov-12 04:00N 36°50' W 008°17'2 3.0
2017-Nov-12 03:29N 36°51' W 008°18'1 3.0
2017-Nov-12 03:00N 36°51' W 008°20'2 3.0
2017-Nov-12 02:30N 36°51' W 008°22'1 2.9
2017-Nov-12 02:00N 36°52' W 008°24'1 2.9
2017-Nov-12 01:31N 36°52' W 008°25'2 3.0
2017-Nov-12 01:00N 36°53' W 008°27'2 3.0
2017-Nov-12 00:31N 36°54' W 008°29'3 7.0
2017-Nov-12 00:00N 36°57' W 008°30'510.6
2017-Nov-11 23:30N 37°03' W 008°31'510.1
2017-Nov-11 23:00N 37°08' W 008°32'0 0.8
2017-Nov-11 22:31N 37°08' W 008°32'0 0.0
2017-Nov-11 22:00N 37°08' W 008°32'0 0.0
2017-Nov-11 21:31N 37°08' W 008°32'0 0.0
2017-Nov-11 21:00N 37°08' W 008°32'0 0.0
2017-Nov-11 20:31N 37°08' W 008°32'0 0.0
2017-Nov-11 20:00N 37°08' W 008°32'0 0.0
2017-Nov-11 19:29N 37°08' W 008°32'4 7.9
2017-Nov-11 19:00N 37°04' W 008°32'5 9.8
2017-Nov-11 18:30N 36°59' W 008°33'510.0
2017-Nov-11 18:00N 36°54' W 008°34'7 4.2
2017-Nov-11 16:23N 36°48' W 008°34'5 3.0
2017-Nov-11 14:41N 36°47' W 008°40'0 1.7
2017-Nov-11 14:27N 36°47' W 008°41'0 0.3
2017-Nov-11 14:00N 36°47' W 008°41'1 2.9
2017-Nov-11 13:30N 36°47' W 008°42'1 2.9
2017-Nov-11 13:00N 36°47' W 008°44'1 2.9
2017-Nov-11 12:30N 36°47' W 008°46'6 2.9
2017-Nov-11 10:30N 36°47' W 008°53'1 2.6
2017-Nov-11 09:59N 36°47' W 008°55'6 0.2
2017-Nov-10 06:25N 36°50' W 009°01'3 6.3
2017-Nov-10 05:59N 36°52' W 008°60'7 6.3
2017-Nov-10 04:49N 36°59' W 008°56'2 4.8
2017-Nov-10 04:30N 37°01' W 008°56'0 0.1
2017-Nov-10 03:31N 37°01' W 008°56'0 0.0
2017-Nov-10 03:21N 37°01' W 008°56'0 0.0
2017-Nov-10 02:52N 37°01' W 008°56'0 0.0
2017-Nov-10 01:54N 37°01' W 008°56'0 0.0
2017-Nov-10 01:09N 37°01' W 008°56'0 0.0
2017-Nov-10 00:09N 37°01' W 008°56'  

Dump ship's entire track history